Airfield :
LOGIN :

Register | Disclaimer

   EN    FR    IT 

 










Legend :    VFR   Marginal VFR   IFR   Intensive IFR   Very Intensive IFR
Visi :
Ceiling :
>= 8 km
>= 3000ft
5 to 8 km
1000 to 3000 ft
1500m to 5 km
500 to 1000 ft
800 to 1500m
200 to 500 ft
< 800m
< 200 ft
Symbols :   Thunderstorms  Fog  Heavy snow  Heavy precipitations  Wind > 20 kt
SIGMETs :     Misc.  Thunderstorms  Icing  Turbulence  Mountain Waves  Volcanic Ashes






- Airport Elevation : 102 ft
- IATA code : CNG


LFBG - Cognac

CURRENT METAR :
  • 162330Z AUTO 23008KT 9999 BKN015/// BKN020/// OVC027/// ///TCU 17/16 Q1013

EXPIRED METARs :
  • 162300Z AUTO 20009KT 9999 FEW019/// BKN024/// OVC031/// ///CB 17/16 Q1013
  • 162230Z AUTO 19007KT 9999 BKN024/// OVC034/// ///CB 17/16 Q1013
  • 162200Z AUTO 19006KT 9999 FEW028/// SCT043/// BKN100/// ///TCU 17/16 Q1013
  • 162130Z AUTO 20007KT 9999 BKN028/// BKN074/// BKN090/// ///TCU 17/16 Q1013
  • 162100Z AUTO 20006KT 9999 -RA FEW025 SCT034 BKN094 18/16 Q1013
  • 162030Z AUTO 21006KT 9999 BKN020 OVC026 18/16 Q1013
  • 162000Z AUTO 22006KT 9999 OVC021/// ///TCU 18/16 Q1012
  • 161930Z AUTO 22008KT 9999 BKN020/// OVC100/// ///TCU 18/16 Q1012
  • 161900Z AUTO 23009KT 9999 OVC020 18/16 Q1012
  • 161830Z AUTO 24007KT 9999 BKN016 OVC021 18/16 Q1012

Expired Forecast.



MET'MAP, your aeronautical weather chart ! - Copyright ORBIFLY December 2007 - Disclaimer

ORBIFLY MET'MAP TEAM :

Programming & Development : Alexandra Zaïnal
Original concept : Baudouin d'Aumeries
Technical & hardware support : Manuel Goepfert
Assistance : Marc-Olivier Méhu




SOURCES & CREDITS :

   NOAA